createdAt,value
2018-09-25T00:00:17.398Z,91.20
2018-09-25T00:02:50.762Z,91.20
2018-09-25T00:05:24.350Z,91.10
2018-09-25T00:07:58.073Z,91.10
2018-09-25T00:10:31.538Z,91.00
2018-09-25T00:13:05.261Z,91.20
2018-09-25T00:15:38.675Z,91.20
2018-09-25T00:18:12.340Z,91.20
2018-09-25T00:20:45.719Z,91.20
2018-09-25T00:23:19.280Z,91.20
2018-09-25T00:25:52.823Z,91.20
2018-09-25T00:28:26.515Z,91.10
2018-09-25T00:31:00.029Z,91.10
2018-09-25T00:33:33.654Z,91.20
2018-09-25T00:36:07.247Z,91.40
2018-09-25T00:38:40.592Z,91.30
2018-09-25T00:41:14.389Z,91.30
2018-09-25T00:43:48.000Z,91.10
2018-09-25T00:46:21.527Z,91.30
2018-09-25T00:48:55.097Z,91.30
2018-09-25T00:51:28.737Z,91.30
2018-09-25T00:54:02.251Z,91.40
2018-09-25T00:56:35.825Z,91.60
2018-09-25T00:59:09.586Z,91.70
2018-09-25T01:01:43.239Z,91.80
2018-09-25T01:04:16.622Z,91.80
2018-09-25T01:06:50.127Z,92.20
2018-09-25T01:09:24.286Z,91.70
2018-09-25T01:11:57.846Z,92.00
2018-09-25T01:14:31.551Z,91.70
2018-09-25T01:17:05.181Z,91.90
2018-09-25T01:19:38.722Z,91.90
2018-09-25T01:22:12.381Z,91.90
2018-09-25T01:24:45.959Z,91.90
2018-09-25T01:27:19.452Z,92.00
2018-09-25T01:29:53.186Z,92.10
2018-09-25T01:32:26.829Z,92.00
2018-09-25T01:35:00.342Z,92.00
2018-09-25T01:37:33.880Z,91.70
2018-09-25T01:40:07.599Z,91.80
2018-09-25T01:42:41.037Z,91.90
2018-09-25T01:45:14.569Z,91.80
2018-09-25T01:47:48.070Z,91.90
2018-09-25T01:50:21.669Z,92.10
2018-09-25T01:52:55.314Z,92.10
2018-09-25T01:55:28.826Z,92.20
2018-09-25T01:58:02.264Z,92.20
2018-09-25T02:00:35.867Z,92.00
2018-09-25T02:03:09.194Z,92.00
2018-09-25T02:05:42.692Z,91.90
2018-09-25T02:08:15.984Z,91.90
2018-09-25T02:10:49.622Z,92.00
2018-09-25T02:13:23.106Z,92.00
2018-09-25T02:15:56.550Z,92.10
2018-09-25T02:18:29.994Z,92.10
2018-09-25T02:21:03.479Z,91.90
2018-09-25T02:23:37.087Z,91.80
2018-09-25T02:26:10.715Z,92.10
2018-09-25T02:28:44.269Z,92.00
2018-09-25T02:31:17.918Z,91.80
2018-09-25T02:33:51.546Z,91.60
2018-09-25T02:36:24.944Z,91.80
2018-09-25T02:38:58.344Z,91.80
2018-09-25T02:41:31.830Z,91.90
2018-09-25T02:44:05.530Z,92.00
2018-09-25T02:46:39.139Z,91.90
2018-09-25T02:49:12.717Z,92.10
2018-09-25T02:51:46.153Z,91.60
2018-09-25T02:54:19.834Z,91.70
2018-09-25T02:56:53.297Z,91.90
2018-09-25T02:59:26.722Z,91.80
2018-09-25T03:02:00.287Z,91.90
2018-09-25T03:04:33.937Z,91.90
2018-09-25T03:07:07.417Z,91.90
2018-09-25T03:09:40.893Z,92.00
2018-09-25T03:12:14.522Z,92.00
2018-09-25T03:14:48.251Z,92.10
2018-09-25T03:17:21.768Z,92.20
2018-09-25T03:19:55.414Z,92.20
2018-09-25T03:22:29.051Z,92.30
2018-09-25T03:25:02.765Z,92.40
2018-09-25T03:27:36.285Z,92.60
2018-09-25T03:30:10.890Z,92.80
2018-09-25T03:32:44.403Z,93.00
2018-09-25T03:35:17.894Z,93.20
2018-09-25T03:37:51.464Z,93.40
2018-09-25T03:40:25.522Z,93.50
2018-09-25T03:42:59.286Z,93.60
2018-09-25T03:45:32.942Z,94.00
2018-09-25T03:48:06.497Z,93.80
2018-09-25T03:50:40.006Z,93.90
2018-09-25T03:53:13.586Z,94.00
2018-09-25T03:55:47.065Z,93.90
2018-09-25T03:58:20.669Z,93.90
2018-09-25T04:00:54.258Z,93.90
2018-09-25T04:03:27.766Z,93.90
2018-09-25T04:06:01.449Z,93.80
2018-09-25T04:08:34.861Z,93.70
2018-09-25T04:11:08.296Z,93.80
2018-09-25T04:13:41.962Z,93.80
2018-09-25T04:16:15.382Z,94.00
2018-09-25T04:18:48.990Z,94.10
2018-09-25T04:21:22.474Z,94.10
2018-09-25T04:23:55.859Z,94.30
2018-09-25T04:26:29.341Z,94.20
2018-09-25T04:29:02.678Z,94.20
2018-09-25T04:31:36.155Z,94.20
2018-09-25T04:34:09.785Z,94.20
2018-09-25T04:36:43.432Z,94.30
2018-09-25T04:39:16.814Z,94.40
2018-09-25T04:41:50.410Z,94.50
2018-09-25T04:44:24.017Z,94.50
2018-09-25T04:46:57.678Z,94.50
2018-09-25T04:49:31.283Z,94.60
2018-09-25T04:52:04.762Z,94.40
2018-09-25T04:54:38.178Z,94.40
2018-09-25T04:57:11.796Z,94.50
2018-09-25T04:59:45.296Z,94.40
2018-09-25T05:02:18.856Z,94.40
2018-09-25T05:04:52.445Z,94.30
2018-09-25T05:07:25.954Z,94.20
2018-09-25T05:09:59.563Z,94.10
2018-09-25T05:12:33.030Z,94.10
2018-09-25T05:15:06.611Z,94.20
2018-09-25T05:17:40.281Z,94.20
2018-09-25T05:20:13.903Z,94.20
2018-09-25T05:22:47.378Z,94.30
2018-09-25T05:25:20.867Z,94.30
2018-09-25T05:27:54.709Z,94.20
2018-09-25T05:30:28.087Z,94.30
2018-09-25T05:33:01.733Z,94.30
2018-09-25T05:35:35.322Z,94.20
2018-09-25T05:38:08.939Z,94.20
2018-09-25T05:40:42.493Z,94.20
2018-09-25T05:43:16.142Z,94.10
2018-09-25T05:45:49.720Z,94.20
2018-09-25T05:48:23.212Z,94.20
2018-09-25T05:50:56.699Z,94.00
2018-09-25T05:53:30.157Z,93.90
2018-09-25T05:56:03.490Z,93.90
2018-09-25T05:58:37.075Z,94.30
2018-09-25T06:01:10.651Z,93.70
2018-09-25T06:03:43.944Z,93.60
2018-09-25T06:06:17.499Z,93.60
2018-09-25T06:08:51.130Z,93.70
2018-09-25T06:11:24.600Z,93.40
2018-09-25T06:13:57.926Z,93.40
2018-09-25T06:16:31.425Z,93.30
2018-09-25T06:19:05.093Z,93.40
2018-09-25T06:21:38.686Z,92.90
2018-09-25T06:24:12.354Z,93.00
2018-09-25T06:26:46.074Z,93.00
2018-09-25T06:29:19.538Z,93.20
2018-09-25T06:31:53.087Z,93.10
2018-09-25T06:34:26.653Z,93.20
2018-09-25T06:37:00.159Z,92.90
2018-09-25T06:39:33.546Z,92.90
2018-09-25T06:42:07.325Z,93.00
2018-09-25T06:44:40.930Z,92.90
2018-09-25T06:47:14.386Z,92.70
2018-09-25T06:49:47.849Z,93.00
2018-09-25T06:52:21.392Z,93.00
2018-09-25T06:54:55.074Z,92.70
2018-09-25T06:57:28.519Z,92.50
2018-09-25T07:00:02.129Z,92.60
2018-09-25T07:02:35.634Z,92.40
2018-09-25T07:05:09.229Z,92.10
2018-09-25T07:07:42.950Z,92.20
2018-09-25T07:10:16.629Z,92.10
2018-09-25T07:12:50.196Z,91.80
2018-09-25T07:15:23.618Z,91.30
2018-09-25T07:17:57.380Z,91.10
2018-09-25T07:20:31.051Z,91.20
2018-09-25T07:23:04.363Z,91.00
2018-09-25T07:25:37.813Z,90.90
2018-09-25T07:28:11.394Z,91.20
2018-09-25T07:30:44.883Z,91.30
2018-09-25T07:33:18.392Z,91.30
2018-09-25T07:35:51.836Z,91.30
2018-09-25T07:38:25.379Z,91.20
2018-09-25T07:40:58.867Z,90.80
2018-09-25T07:43:32.571Z,90.60
2018-09-25T07:46:06.133Z,90.30
2018-09-25T07:48:39.645Z,89.90
2018-09-25T07:51:13.110Z,88.80
2018-09-25T07:53:46.689Z,88.50
2018-09-25T07:56:20.359Z,88.30
2018-09-25T07:58:53.787Z,88.30
2018-09-25T08:01:27.285Z,88.80
2018-09-25T08:04:01.050Z,88.50
2018-09-25T08:06:34.597Z,88.80
2018-09-25T08:09:08.185Z,88.60
2018-09-25T08:11:41.638Z,88.30
2018-09-25T08:14:15.086Z,87.80
2018-09-25T08:16:48.514Z,87.60
2018-09-25T08:19:22.201Z,87.20
2018-09-25T08:21:55.658Z,86.70
2018-09-25T08:24:29.370Z,86.50
2018-09-25T08:27:03.007Z,85.20
2018-09-25T08:29:36.570Z,85.70
2018-09-25T08:32:10.014Z,84.20
2018-09-25T08:34:43.680Z,83.90
2018-09-25T08:37:17.302Z,82.90
2018-09-25T08:39:50.939Z,81.90
2018-09-25T08:42:24.413Z,82.30
2018-09-25T08:44:57.895Z,81.50
2018-09-25T08:47:31.448Z,80.80
2018-09-25T08:50:04.857Z,79.70
2018-09-25T08:52:38.566Z,79.90
2018-09-25T08:55:12.817Z,78.90
2018-09-25T08:57:46.498Z,79.10
2018-09-25T09:00:19.911Z,78.80
2018-09-25T09:02:53.574Z,77.30
2018-09-25T09:05:27.282Z,76.50
2018-09-25T09:08:00.901Z,74.90
2018-09-25T09:10:34.438Z,74.90
2018-09-25T09:13:08.095Z,74.50
2018-09-25T09:15:41.562Z,75.40
2018-09-25T09:18:15.166Z,74.30
2018-09-25T09:20:48.841Z,72.00
2018-09-25T09:23:22.351Z,70.80
2018-09-25T09:25:55.788Z,71.20
2018-09-25T09:28:29.247Z,71.40
2018-09-25T09:31:02.656Z,69.80
2018-09-25T09:33:36.251Z,69.70
2018-09-25T09:36:09.697Z,68.60
2018-09-25T09:38:43.309Z,67.50
2018-09-25T09:41:16.789Z,68.20
2018-09-25T09:43:50.012Z,67.50
2018-09-25T09:46:23.655Z,67.30
2018-09-25T09:48:57.159Z,67.10
2018-09-25T09:51:30.497Z,67.10
2018-09-25T09:54:04.171Z,65.20
2018-09-25T09:56:37.570Z,64.30
2018-09-25T09:59:11.496Z,63.00
2018-09-25T10:01:45.021Z,60.80
2018-09-25T10:04:18.597Z,60.00
2018-09-25T10:06:52.162Z,61.40
2018-09-25T10:09:25.855Z,59.90
2018-09-25T10:11:59.480Z,57.90
2018-09-25T10:14:33.059Z,58.20
2018-09-25T10:17:06.679Z,58.20
2018-09-25T10:19:40.143Z,57.40
2018-09-25T10:22:13.813Z,58.10
2018-09-25T10:24:47.326Z,57.70
2018-09-25T10:27:20.809Z,57.60
2018-09-25T10:29:54.123Z,55.10
2018-09-25T10:32:27.899Z,54.60
2018-09-25T10:35:01.325Z,54.80
2018-09-25T10:37:34.807Z,53.90
2018-09-25T10:40:08.342Z,54.30
2018-09-25T10:42:41.913Z,54.00
2018-09-25T10:45:15.423Z,53.60
2018-09-25T10:47:49.200Z,52.70
2018-09-25T10:50:22.674Z,52.90
2018-09-25T10:52:56.142Z,52.10
2018-09-25T10:55:29.738Z,51.50
2018-09-25T10:58:03.257Z,52.00
2018-09-25T11:00:36.775Z,52.30
2018-09-25T11:03:10.351Z,51.90
2018-09-25T11:05:43.886Z,52.30
2018-09-25T11:08:17.619Z,50.10
2018-09-25T11:10:51.270Z,50.00
2018-09-25T11:13:24.663Z,51.00
2018-09-25T11:15:58.209Z,50.40
2018-09-25T11:18:31.888Z,51.30
2018-09-25T11:21:05.386Z,51.90
2018-09-25T11:23:39.042Z,52.80
2018-09-25T11:26:12.697Z,52.30
2018-09-25T11:28:46.165Z,53.60
2018-09-25T11:31:26.311Z,53.80
2018-09-25T11:33:59.970Z,54.80
2018-09-25T11:36:33.687Z,54.90
2018-09-25T11:39:07.231Z,54.20
2018-09-25T11:41:40.724Z,54.20
2018-09-25T11:44:14.371Z,50.90
2018-09-25T11:46:47.938Z,49.40
2018-09-25T11:49:21.366Z,46.80
2018-09-25T11:51:54.722Z,46.20
2018-09-25T11:54:28.325Z,46.70
2018-09-25T11:57:02.130Z,45.40
2018-09-25T11:59:35.847Z,46.00
2018-09-25T12:02:09.392Z,45.70
2018-09-25T12:04:42.827Z,44.90
2018-09-25T12:07:16.393Z,44.10
2018-09-25T12:09:49.991Z,44.00
2018-09-25T12:12:23.473Z,43.80
2018-09-25T12:14:57.106Z,44.20
2018-09-25T12:17:30.665Z,43.10
2018-09-25T12:20:04.231Z,41.00
2018-09-25T12:22:37.864Z,39.80
2018-09-25T12:25:11.493Z,39.30
2018-09-25T12:27:44.880Z,37.90
2018-09-25T12:30:18.433Z,37.60
2018-09-25T12:32:51.849Z,38.60
2018-09-25T12:35:25.326Z,40.90
2018-09-25T12:37:59.034Z,43.40
2018-09-25T12:40:32.710Z,44.80
2018-09-25T12:43:06.322Z,45.80
2018-09-25T12:45:39.947Z,44.80
2018-09-25T12:48:13.590Z,45.20
2018-09-25T12:50:47.344Z,44.90
2018-09-25T12:53:20.893Z,43.00
2018-09-25T12:55:54.418Z,41.60
2018-09-25T12:58:28.057Z,39.40
2018-09-25T13:01:01.579Z,37.30
2018-09-25T13:03:34.951Z,37.60
2018-09-25T13:06:08.501Z,37.90
2018-09-25T13:08:41.819Z,39.60
2018-09-25T13:11:15.330Z,41.40
2018-09-25T13:13:48.758Z,41.30
2018-09-25T13:16:22.292Z,40.50
2018-09-25T13:18:56.005Z,40.50
2018-09-25T13:21:29.606Z,40.50
2018-09-25T13:24:03.203Z,40.50
2018-09-25T13:26:36.710Z,40.00
2018-09-25T13:29:10.048Z,39.00
2018-09-25T13:31:43.589Z,38.90
2018-09-25T13:34:17.222Z,38.40
2018-09-25T13:36:50.684Z,38.80
2018-09-25T13:39:24.043Z,38.40
2018-09-25T13:41:57.691Z,37.80
2018-09-25T13:44:31.197Z,37.50
2018-09-25T13:47:04.790Z,35.30
2018-09-25T13:49:38.337Z,37.00
2018-09-25T13:52:11.978Z,36.70
2018-09-25T13:54:45.466Z,36.00
2018-09-25T13:57:18.911Z,35.30
2018-09-25T13:59:52.597Z,36.00
2018-09-25T14:02:26.186Z,36.80
2018-09-25T14:04:59.872Z,34.90
2018-09-25T14:07:33.409Z,33.90
2018-09-25T14:10:07.202Z,32.90
2018-09-25T14:12:40.734Z,32.00
2018-09-25T14:15:14.284Z,31.60
2018-09-25T14:17:47.989Z,31.40
2018-09-25T14:20:21.692Z,31.20
2018-09-25T14:22:55.317Z,30.90
2018-09-25T14:25:28.997Z,31.30
2018-09-25T14:28:02.622Z,31.50
2018-09-25T14:30:36.379Z,30.60
2018-09-25T14:33:09.941Z,29.90
2018-09-25T14:35:43.436Z,30.00
2018-09-25T14:38:17.126Z,29.30
2018-09-25T14:40:50.657Z,28.60
2018-09-25T14:43:24.418Z,28.50
2018-09-25T14:45:58.061Z,28.80
2018-09-25T14:48:32.508Z,28.50
2018-09-25T14:51:06.039Z,27.50
2018-09-25T14:53:39.782Z,28.90
2018-09-25T14:56:13.411Z,29.20
2018-09-25T14:58:47.090Z,29.70
2018-09-25T15:01:20.792Z,30.60
2018-09-25T15:03:54.481Z,30.70
2018-09-25T15:06:28.171Z,31.50
2018-09-25T15:09:01.885Z,33.10
2018-09-25T15:11:35.375Z,34.80
2018-09-25T15:14:09.075Z,34.20
2018-09-25T15:16:42.609Z,34.60
2018-09-25T15:19:16.341Z,35.60
2018-09-25T15:21:50.169Z,35.80
2018-09-25T15:24:23.697Z,36.30
2018-09-25T15:26:57.370Z,36.70
2018-09-25T15:29:30.874Z,37.10
2018-09-25T15:32:04.457Z,37.60
2018-09-25T15:34:37.949Z,38.70
2018-09-25T15:37:11.661Z,39.60
2018-09-25T15:39:45.072Z,38.80
2018-09-25T15:42:18.645Z,39.20
2018-09-25T15:44:52.272Z,39.10
2018-09-25T15:47:26.008Z,39.90
2018-09-25T15:49:59.842Z,40.00
2018-09-25T15:52:33.354Z,41.00
2018-09-25T15:55:06.819Z,40.70
2018-09-25T15:57:40.438Z,41.40
2018-09-25T16:00:14.207Z,40.90
2018-09-25T16:02:47.701Z,41.90
2018-09-25T16:05:21.248Z,41.80
2018-09-25T16:07:55.027Z,42.30
2018-09-25T16:10:28.387Z,42.80
2018-09-25T16:13:02.010Z,42.70
2018-09-25T16:15:42.452Z,43.10
2018-09-25T16:18:16.125Z,43.40
2018-09-25T16:20:49.719Z,43.90
2018-09-25T16:23:23.446Z,44.80
2018-09-25T16:25:56.910Z,45.20
2018-09-25T16:28:30.555Z,45.20
2018-09-25T16:31:04.161Z,45.40
2018-09-25T16:33:37.685Z,46.00
2018-09-25T16:36:11.391Z,46.40
2018-09-25T16:38:44.985Z,46.20
2018-09-25T16:41:18.443Z,45.80
2018-09-25T16:43:51.933Z,46.20
2018-09-25T16:46:25.709Z,46.00
2018-09-25T16:49:00.195Z,46.80
2018-09-25T16:51:34.236Z,48.00
2018-09-25T16:54:08.245Z,48.00
2018-09-25T16:56:42.435Z,48.30
2018-09-25T16:59:16.789Z,49.20
2018-09-25T17:01:51.025Z,49.60
2018-09-25T17:04:25.199Z,50.00
2018-09-25T17:06:59.442Z,50.80
2018-09-25T17:09:33.193Z,51.10
2018-09-25T17:12:06.877Z,52.10
2018-09-25T17:14:40.450Z,53.10
2018-09-25T17:17:13.966Z,54.00
2018-09-25T17:19:47.708Z,55.00
2018-09-25T17:22:21.245Z,55.70
2018-09-25T17:24:54.893Z,56.90
2018-09-25T17:27:28.483Z,57.70
2018-09-25T17:30:02.172Z,58.40
2018-09-25T17:32:35.618Z,58.80
2018-09-25T17:35:09.002Z,59.80
2018-09-25T17:37:42.626Z,60.20
2018-09-25T17:40:16.144Z,61.10
2018-09-25T17:42:49.906Z,61.50
2018-09-25T17:45:23.659Z,62.10
2018-09-25T17:47:57.391Z,62.80
2018-09-25T17:50:31.210Z,63.70
2018-09-25T17:53:04.681Z,64.30
2018-09-25T17:55:38.380Z,65.70
2018-09-25T17:58:12.123Z,65.70
2018-09-25T18:00:45.917Z,65.90
2018-09-25T18:03:19.482Z,66.50
2018-09-25T18:05:52.987Z,67.40
2018-09-25T18:08:26.454Z,67.30
2018-09-25T18:10:59.998Z,67.70
2018-09-25T18:13:33.694Z,68.00
2018-09-25T18:16:07.278Z,68.40
2018-09-25T18:18:40.606Z,69.20
2018-09-25T18:21:18.216Z,69.70
2018-09-25T18:23:51.793Z,70.20
2018-09-25T18:26:25.422Z,70.90
2018-09-25T18:28:58.921Z,71.40
2018-09-25T18:31:32.426Z,71.80
2018-09-25T18:34:06.111Z,72.20
2018-09-25T18:36:39.784Z,72.70
2018-09-25T18:39:13.523Z,73.00
2018-09-25T18:41:47.081Z,73.70
2018-09-25T18:44:20.737Z,73.80
2018-09-25T18:46:54.151Z,74.30
2018-09-25T18:49:27.886Z,74.50
2018-09-25T18:52:01.478Z,75.10
2018-09-25T18:54:35.260Z,75.60
2018-09-25T18:57:08.821Z,75.90
2018-09-25T18:59:42.602Z,76.30
2018-09-25T19:02:16.691Z,76.30
2018-09-25T19:04:50.547Z,76.80
2018-09-25T19:07:24.092Z,76.90
2018-09-25T19:09:57.483Z,77.30
2018-09-25T19:12:31.000Z,77.70
2018-09-25T19:15:04.716Z,77.90
2018-09-25T19:17:38.254Z,78.20
2018-09-25T19:20:12.833Z,78.00
2018-09-25T19:22:46.473Z,78.20
2018-09-25T19:25:20.043Z,77.80
2018-09-25T19:27:53.789Z,78.00
2018-09-25T19:30:27.122Z,77.70
2018-09-25T19:33:00.551Z,78.30
2018-09-25T19:35:34.037Z,78.70
2018-09-25T19:38:07.647Z,78.90
2018-09-25T19:40:41.312Z,79.20
2018-09-25T19:43:14.987Z,79.20
2018-09-25T19:45:48.520Z,79.60
2018-09-25T19:48:22.001Z,79.80
2018-09-25T19:50:55.549Z,79.70
2018-09-25T19:53:29.311Z,80.00
2018-09-25T19:56:02.907Z,80.20
2018-09-25T19:58:36.374Z,80.50
2018-09-25T20:01:10.073Z,80.70
2018-09-25T20:03:43.750Z,80.90
2018-09-25T20:06:17.332Z,80.90
2018-09-25T20:08:50.687Z,80.90
2018-09-25T20:11:24.366Z,81.20
2018-09-25T20:13:57.870Z,81.40
2018-09-25T20:16:31.562Z,82.00
2018-09-25T20:19:05.247Z,82.50
2018-09-25T20:21:38.996Z,82.70
2018-09-25T20:24:12.666Z,83.10
2018-09-25T20:26:46.428Z,83.50
2018-09-25T20:29:20.024Z,83.90
2018-09-25T20:31:53.487Z,84.00
2018-09-25T20:34:27.707Z,84.00
2018-09-25T20:37:02.006Z,84.20
2018-09-25T20:39:35.690Z,84.30
2018-09-25T20:42:09.383Z,84.70
2018-09-25T20:44:42.882Z,85.00
2018-09-25T20:47:16.435Z,85.80
2018-09-25T20:49:49.843Z,85.30
2018-09-25T20:52:23.306Z,85.30
2018-09-25T20:54:56.897Z,85.50
2018-09-25T20:57:30.536Z,85.80
2018-09-25T21:00:04.045Z,85.90
2018-09-25T21:02:37.682Z,86.20
2018-09-25T21:05:11.138Z,86.20
2018-09-25T21:07:44.803Z,86.00
2018-09-25T21:10:18.433Z,86.20
2018-09-25T21:12:51.943Z,86.50
2018-09-25T21:15:25.797Z,86.80
2018-09-25T21:17:59.273Z,87.20
2018-09-25T21:20:32.910Z,87.10
2018-09-25T21:23:06.567Z,87.20
2018-09-25T21:25:40.074Z,87.10
2018-09-25T21:28:13.687Z,87.10
2018-09-25T21:30:47.319Z,87.20
2018-09-25T21:33:21.003Z,87.60
2018-09-25T21:35:54.578Z,87.90
2018-09-25T21:38:28.198Z,88.00
2018-09-25T21:41:01.658Z,88.80
2018-09-25T21:43:35.261Z,88.50
2018-09-25T21:46:08.917Z,88.70
2018-09-25T21:48:42.500Z,88.60
2018-09-25T21:51:16.107Z,88.70
2018-09-25T21:53:49.594Z,89.40
2018-09-25T21:56:23.264Z,88.80
2018-09-25T21:58:56.901Z,88.70
2018-09-25T22:01:30.544Z,88.50
2018-09-25T22:04:04.075Z,88.60
2018-09-25T22:06:37.640Z,88.60
2018-09-25T22:09:12.572Z,88.50
2018-09-25T22:11:46.209Z,88.60
2018-09-25T22:14:19.750Z,88.60
2018-09-25T22:16:53.106Z,88.70
2018-09-25T22:19:26.813Z,88.70
2018-09-25T22:22:00.345Z,88.80
2018-09-25T22:24:34.057Z,88.70
2018-09-25T22:27:07.738Z,88.70
2018-09-25T22:29:41.249Z,88.80
2018-09-25T22:32:14.725Z,89.10
2018-09-25T22:34:48.112Z,89.10
2018-09-25T22:37:21.615Z,89.50
2018-09-25T22:39:55.250Z,89.40
2018-09-25T22:42:28.929Z,90.10
2018-09-25T22:45:02.577Z,89.80
2018-09-25T22:47:36.177Z,89.90
2018-09-25T22:50:09.839Z,89.80
2018-09-25T22:52:43.359Z,89.80
2018-09-25T22:55:17.030Z,89.80
2018-09-25T22:57:50.518Z,90.00
2018-09-25T23:00:24.139Z,90.20
2018-09-25T23:02:57.703Z,89.90
2018-09-25T23:05:31.322Z,90.00
2018-09-25T23:08:05.055Z,90.10
2018-09-25T23:10:38.594Z,90.20
2018-09-25T23:13:12.219Z,90.10
2018-09-25T23:15:45.729Z,90.00
2018-09-25T23:18:19.366Z,90.00
2018-09-25T23:20:52.806Z,90.30
2018-09-25T23:23:26.194Z,90.10
2018-09-25T23:25:59.702Z,90.00
2018-09-25T23:28:33.340Z,90.00
2018-09-25T23:31:06.790Z,90.00
2018-09-25T23:33:40.430Z,90.00
2018-09-25T23:36:14.053Z,90.00
2018-09-25T23:38:47.441Z,89.70
2018-09-25T23:41:21.734Z,89.80
2018-09-25T23:43:56.031Z,89.50
2018-09-25T23:46:49.570Z,89.50
2018-09-25T23:49:25.906Z,89.40
2018-09-25T23:51:58.265Z,89.60
2018-09-25T23:54:30.910Z,89.60
2018-09-25T23:57:05.758Z,89.70
